createdAt,value
2022-08-15T00:00:00.173Z,74.13
2022-08-15T00:00:59.332Z,73.49
2022-08-15T00:01:59.312Z,73.36
2022-08-15T00:03:09.637Z,74.22
2022-08-15T00:04:10.355Z,73.94
2022-08-15T00:05:29.379Z,74.22
2022-08-15T00:06:43.610Z,74.13
2022-08-15T00:07:53.399Z,74.36
2022-08-15T00:09:00.933Z,72.11
2022-08-15T00:10:11.042Z,72.97
2022-08-15T00:11:39.942Z,73.46
2022-08-15T00:12:41.011Z,74.07
2022-08-15T00:13:46.326Z,73.3
2022-08-15T00:14:43.450Z,71.81
2022-08-15T00:15:48.897Z,72.39
2022-08-15T00:16:41.816Z,71.34
2022-08-15T00:17:54.805Z,70.89
2022-08-15T00:18:42.940Z,70.7
2022-08-15T00:19:45.726Z,72.33
2022-08-15T00:20:55.176Z,73.01
2022-08-15T00:21:48.805Z,72.43
2022-08-15T00:22:48.473Z,72.33
2022-08-15T00:23:46.220Z,73.01
2022-08-15T00:24:47.239Z,73.97
2022-08-15T00:25:48.882Z,73.39
2022-08-15T00:27:38.446Z,73.68
2022-08-15T00:28:45.636Z,74.07
2022-08-15T00:29:44.573Z,73.2
2022-08-15T00:30:59.534Z,73.49
2022-08-15T00:31:46.902Z,73.3
2022-08-15T00:33:27.032Z,73.36
2022-08-15T00:33:48.938Z,73.65
2022-08-15T00:34:50.735Z,74.22
2022-08-15T00:36:51.517Z,73.1
2022-08-15T00:37:14.584Z,73.94
2022-08-15T00:38:44.601Z,72.88
2022-08-15T00:39:39.184Z,72.97
2022-08-15T00:40:37.798Z,72.78
2022-08-15T00:41:41.688Z,72.68
2022-08-15T00:42:36.013Z,73.01
2022-08-15T00:43:36.895Z,73.39
2022-08-15T00:45:07.691Z,73.36
2022-08-15T00:46:00.811Z,74.07
2022-08-15T00:46:50.265Z,72.59
2022-08-15T00:47:50.378Z,73.36
2022-08-15T00:48:51.864Z,73.26
2022-08-15T00:50:08.121Z,73.2
2022-08-15T00:50:55.407Z,73.36
2022-08-15T00:51:59.793Z,73.65
2022-08-15T00:52:59.345Z,73.36
2022-08-15T00:53:58.598Z,74.41
2022-08-15T00:55:05.062Z,73.49
2022-08-15T00:56:04.760Z,72.78
2022-08-15T00:57:04.772Z,72.68
2022-08-15T00:58:24.303Z,73.26
2022-08-15T01:00:00.935Z,73.26
2022-08-15T01:00:50.650Z,73.36
2022-08-15T01:02:22.830Z,73.94
2022-08-15T01:02:53.690Z,73.84
2022-08-15T01:04:00.894Z,73.65
2022-08-15T01:05:00.021Z,73.65
2022-08-15T01:05:58.347Z,74.32
2022-08-15T01:07:03.975Z,74.51
2022-08-15T01:07:57.638Z,74.71
2022-08-15T01:08:58.225Z,74.51
2022-08-15T01:09:59.599Z,74.65
2022-08-15T01:11:08.382Z,74.71
2022-08-15T01:12:00.540Z,75.76
2022-08-15T01:13:01.326Z,75.76
2022-08-15T01:15:09.553Z,76.15
2022-08-15T01:16:09.532Z,75.76
2022-08-15T01:17:12.752Z,75.28
2022-08-15T01:18:39.327Z,75.09
2022-08-15T01:19:15.881Z,74.71
2022-08-15T01:20:11.795Z,75.57
2022-08-15T01:21:21.952Z,76.82
2022-08-15T01:22:22.131Z,76.25
2022-08-15T01:23:22.890Z,75.48
2022-08-15T01:24:25.251Z,75.67
2022-08-15T01:26:52.077Z,75.48
2022-08-15T01:27:45.477Z,75.86
2022-08-15T01:28:45.176Z,75.86
2022-08-15T01:29:45.922Z,75.96
2022-08-15T01:31:09.724Z,76.15
2022-08-15T01:31:54.352Z,76.82
2022-08-15T01:32:46.279Z,77.01
2022-08-15T01:33:48.770Z,76.44
2022-08-15T01:34:51.136Z,76.53
2022-08-15T01:35:52.820Z,76.53
2022-08-15T01:36:49.706Z,77.11
2022-08-15T01:38:05.754Z,77.31
2022-08-15T01:39:18.064Z,78.08
2022-08-15T01:40:59.589Z,77.98
2022-08-15T01:41:36.348Z,78.08
2022-08-15T01:42:23.377Z,77.78
2022-08-15T01:43:24.098Z,77.78
2022-08-15T01:44:50.109Z,78.08
2022-08-15T01:45:26.306Z,78.61
2022-08-15T01:46:26.429Z,78.56
2022-08-15T01:47:30.920Z,78.56
2022-08-15T01:48:34.902Z,78.65
2022-08-15T01:49:27.997Z,78.94
2022-08-15T01:50:36.266Z,78.94
2022-08-15T01:51:28.633Z,79.38
2022-08-15T01:53:16.636Z,79.43
2022-08-15T01:54:06.587Z,80.77
2022-08-15T01:55:11.870Z,80.38
2022-08-15T01:56:45.558Z,80.58
2022-08-15T01:57:13.869Z,80.38
2022-08-15T01:58:13.527Z,80.63
2022-08-15T01:59:13.445Z,80.58
2022-08-15T02:00:23.384Z,80.29
2022-08-15T02:01:16.580Z,80.92
2022-08-15T02:02:47.770Z,80.92
2022-08-15T02:03:20.410Z,80.83
2022-08-15T02:04:31.868Z,81.7
2022-08-15T02:05:36.508Z,81.6
2022-08-15T02:06:41.663Z,82.31
2022-08-15T02:07:37.816Z,82.85
2022-08-15T02:08:54.182Z,82.65
2022-08-15T02:09:57.632Z,81.98
2022-08-15T02:10:54.511Z,81.7
2022-08-15T02:12:19.858Z,81.5
2022-08-15T02:13:45.793Z,82.85
2022-08-15T02:14:44.725Z,82.6
2022-08-15T02:15:43.523Z,82.65
2022-08-15T02:16:42.857Z,82.75
2022-08-15T02:17:43.427Z,83.33
2022-08-15T02:18:45.338Z,82.75
2022-08-15T02:19:55.800Z,82.31
2022-08-15T02:20:45.414Z,82.08
2022-08-15T02:21:48.500Z,82.27
2022-08-15T02:22:46.059Z,82.5
2022-08-15T02:23:46.554Z,82.27
2022-08-15T02:24:47.014Z,82.79
2022-08-15T02:25:49.881Z,83.14
2022-08-15T02:26:51.746Z,83.62
2022-08-15T02:27:57.409Z,82.94
2022-08-15T02:28:50.530Z,82.89
2022-08-15T02:29:58.724Z,84.23
2022-08-15T02:30:51.756Z,84.97
2022-08-15T02:31:53.369Z,84.48
2022-08-15T02:32:52.770Z,85.25
2022-08-15T02:33:52.508Z,86.41
2022-08-15T02:34:54.321Z,86.6
2022-08-15T02:35:58.793Z,88.71
2022-08-15T02:36:58.292Z,88.71
2022-08-15T02:38:03.832Z,89.39
2022-08-15T02:39:01.224Z,90.55
2022-08-15T02:40:46.341Z,92.66
2022-08-15T02:41:09.796Z,93.91
2022-08-15T02:42:11.148Z,95.07
2022-08-15T02:43:15.354Z,95.74
2022-08-15T02:44:13.251Z,95.89
2022-08-15T02:45:13.539Z,96.42
2022-08-15T02:46:37.410Z,96.89
2022-08-15T02:47:39.426Z,96.85
2022-08-15T02:48:39.015Z,98.49
2022-08-15T02:49:50.281Z,96.7
2022-08-15T02:50:42.450Z,97.86
2022-08-15T02:51:58.845Z,98.14
2022-08-15T02:52:41.396Z,97.24
2022-08-15T02:53:52.961Z,98.34
2022-08-15T02:55:08.116Z,99.16
2022-08-15T02:56:05.871Z,99.99
2022-08-15T02:57:06.865Z,99.93
2022-08-15T02:58:10.800Z,99.99
2022-08-15T02:59:15.944Z,99.99
2022-08-15T03:00:23.892Z,99.99
2022-08-15T03:01:15.360Z,99.99
2022-08-15T03:02:29.578Z,99.99
2022-08-15T03:03:15.195Z,99.99
2022-08-15T03:04:34.218Z,99.99
2022-08-15T03:05:12.815Z,99.99
2022-08-15T03:06:31.036Z,99.99
2022-08-15T03:07:30.711Z,99.44
2022-08-15T03:08:30.494Z,99.26
2022-08-15T03:09:38.495Z,98.1
2022-08-15T03:10:39.537Z,97.42
2022-08-15T03:12:07.502Z,97.91
2022-08-15T03:12:55.433Z,98.1
2022-08-15T03:13:55.818Z,99.99
2022-08-15T03:14:55.958Z,99.35
2022-08-15T03:16:04.333Z,99.35
2022-08-15T03:16:57.786Z,99.99
2022-08-15T03:17:56.894Z,99.99
2022-08-15T03:18:57.509Z,99.35
2022-08-15T03:20:01.751Z,99.54
2022-08-15T03:20:58.725Z,99.69
2022-08-15T03:22:01.300Z,99.3
2022-08-15T03:22:59.911Z,99.35
2022-08-15T03:24:00.217Z,99.44
2022-08-15T03:25:01.212Z,99.06
2022-08-15T03:26:02.609Z,96.94
2022-08-15T03:27:03.175Z,97.14
2022-08-15T03:28:03.859Z,95.98
2022-08-15T03:29:20.869Z,96.66
2022-08-15T03:30:16.717Z,95.84
2022-08-15T03:31:12.887Z,96.7
2022-08-15T03:32:14.209Z,96.7
2022-08-15T03:33:16.199Z,96.8
2022-08-15T03:34:15.540Z,96.8
2022-08-15T03:35:15.949Z,96.61
2022-08-15T03:36:20.001Z,95.84
2022-08-15T03:37:17.394Z,95.84
2022-08-15T03:38:37.218Z,96.03
2022-08-15T03:39:21.472Z,95.07
2022-08-15T03:40:21.942Z,94.2
2022-08-15T03:41:23.694Z,93.82
2022-08-15T03:42:24.573Z,93.05
2022-08-15T03:43:21.675Z,91.89
2022-08-15T03:44:32.777Z,90.73
2022-08-15T03:45:22.627Z,91.6
2022-08-15T03:46:29.367Z,93
2022-08-15T03:47:24.089Z,92.52
2022-08-15T03:48:28.399Z,93.09
2022-08-15T03:50:35.382Z,90.5
2022-08-15T03:51:09.063Z,89.43
2022-08-15T03:52:09.706Z,87.6
2022-08-15T03:53:10.140Z,86.4
2022-08-15T03:54:24.994Z,85.43
2022-08-15T03:55:15.439Z,85.96
2022-08-15T03:56:12.174Z,84.99
2022-08-15T03:57:11.698Z,84.32
2022-08-15T03:58:15.719Z,83.74
2022-08-15T03:59:28.987Z,86.63
2022-08-15T04:00:31.794Z,87.5
2022-08-15T04:01:34.951Z,86.35
2022-08-15T04:02:35.602Z,85.67
2022-08-15T04:03:33.458Z,87.3
2022-08-15T04:04:34.526Z,88.46
2022-08-15T04:05:45.292Z,87.79
2022-08-15T04:06:33.772Z,86.92
2022-08-15T04:07:46.584Z,86.92
2022-08-15T04:09:26.266Z,88.27
2022-08-15T04:10:49.892Z,86.15
2022-08-15T04:11:50.540Z,85.86
2022-08-15T04:12:51.705Z,86.92
2022-08-15T04:13:57.121Z,85.96
2022-08-15T04:14:53.569Z,85.57
2022-08-15T04:17:11.540Z,87.4
2022-08-15T04:18:50.375Z,86.05
2022-08-15T04:19:55.856Z,88.46
2022-08-15T04:20:51.882Z,86.73
2022-08-15T04:21:56.048Z,87.4
2022-08-15T04:23:08.169Z,87.4
2022-08-15T04:24:33.414Z,87.02
2022-08-15T04:25:22.927Z,88.17
2022-08-15T04:26:21.468Z,88.85
2022-08-15T04:27:11.531Z,88.85
2022-08-15T04:28:39.341Z,89.91
2022-08-15T04:29:22.373Z,89.43
2022-08-15T04:30:24.940Z,89.91
2022-08-15T04:31:23.857Z,90
2022-08-15T04:32:58.576Z,90.1
2022-08-15T04:35:29.949Z,90.92
2022-08-15T04:36:35.939Z,91.02
2022-08-15T04:37:33.317Z,90.54
2022-08-15T04:38:32.609Z,90.83
2022-08-15T04:39:38.249Z,90.73
2022-08-15T04:41:29.143Z,90.92
2022-08-15T04:42:01.793Z,91.6
2022-08-15T04:43:03.097Z,92.37
2022-08-15T04:44:03.983Z,93.48
2022-08-15T04:45:07.035Z,92.8
2022-08-15T04:46:05.830Z,92.03
2022-08-15T04:47:17.044Z,93.09
2022-08-15T04:48:25.460Z,92.9
2022-08-15T04:49:18.528Z,93.57
2022-08-15T04:50:24.385Z,93.96
2022-08-15T04:51:22.389Z,94.15
2022-08-15T04:52:20.393Z,94.4
2022-08-15T04:53:30.880Z,94.4
2022-08-15T04:54:21.140Z,94.97
2022-08-15T04:55:28.002Z,95.26
2022-08-15T04:56:58.847Z,96.51
2022-08-15T04:58:01.599Z,97.09
2022-08-15T05:00:13.211Z,96.8
2022-08-15T05:01:11.347Z,97.04
2022-08-15T05:02:58.532Z,98.05
2022-08-15T05:03:29.781Z,97.81
2022-08-15T05:04:31.758Z,97.67
2022-08-15T05:05:42.847Z,98.44
2022-08-15T05:06:36.369Z,99.01
2022-08-15T05:07:35.998Z,99.99
2022-08-15T05:08:35.542Z,99.99
2022-08-15T05:09:59.543Z,99.78
2022-08-15T05:10:39.121Z,99.21
2022-08-15T05:12:08.925Z,99.01
2022-08-15T05:12:42.021Z,98.63
2022-08-15T05:13:40.634Z,98.34
2022-08-15T05:14:55.488Z,98.14
2022-08-15T05:15:54.527Z,98.14
2022-08-15T05:16:42.936Z,95.74
2022-08-15T05:18:01.835Z,94.01
2022-08-15T05:18:52.021Z,92.76
2022-08-15T05:19:44.209Z,92.66
2022-08-15T05:20:45.015Z,91.27
2022-08-15T05:21:48.878Z,92.42
2022-08-15T05:22:45.654Z,91.65
2022-08-15T05:23:48.315Z,91.31
2022-08-15T05:24:48.407Z,90.54
2022-08-15T05:25:47.999Z,90.44
2022-08-15T05:27:03.780Z,88.23
2022-08-15T05:27:51.026Z,89
2022-08-15T05:28:57.736Z,90.2
2022-08-15T05:29:47.849Z,89.91
2022-08-15T05:30:57.820Z,88.61
2022-08-15T05:31:48.828Z,87.98
2022-08-15T05:32:54.475Z,89.14
2022-08-15T05:34:02.293Z,87.6
2022-08-15T05:34:54.353Z,88.37
2022-08-15T05:35:57.308Z,88.65
2022-08-15T05:36:52.260Z,88.85
2022-08-15T05:37:51.963Z,89.53
2022-08-15T05:38:56.116Z,90.39
2022-08-15T05:39:55.266Z,90.88
2022-08-15T05:40:54.858Z,89.91
2022-08-15T05:41:58.969Z,91.06
2022-08-15T05:42:56.029Z,90.78
2022-08-15T05:44:00.407Z,90.58
2022-08-15T05:44:59.074Z,91.36
2022-08-15T05:45:59.980Z,92.61
2022-08-15T05:47:01.023Z,92.56
2022-08-15T05:48:00.874Z,93.04
2022-08-15T05:49:01.578Z,94.97
2022-08-15T05:50:03.353Z,95.16
2022-08-15T05:51:05.868Z,95.84
2022-08-15T05:52:05.482Z,97.42
2022-08-15T05:53:10.388Z,98.68
2022-08-15T05:54:09.877Z,99.26
2022-08-15T05:55:06.949Z,99.99
2022-08-15T05:56:06.858Z,99.99
2022-08-15T05:57:07.685Z,99.99
2022-08-15T05:58:44.718Z,99.99
2022-08-15T05:59:08.221Z,99.99
2022-08-15T06:00:12.496Z,99.99
2022-08-15T06:01:14.495Z,99.99
2022-08-15T06:02:45.761Z,99.99
2022-08-15T06:03:17.471Z,99.99
2022-08-15T06:04:36.081Z,99.99
2022-08-15T06:05:17.989Z,99.99
2022-08-15T06:06:45.593Z,99.99
2022-08-15T06:07:20.376Z,99.99
2022-08-15T06:09:01.036Z,99.99
2022-08-15T06:09:31.699Z,99.99
2022-08-15T06:10:43.159Z,99.99
2022-08-15T06:11:46.027Z,99.99
2022-08-15T06:12:43.820Z,99.99
2022-08-15T06:13:45.640Z,99.99
2022-08-15T06:14:51.372Z,99.99
2022-08-15T06:15:47.500Z,99.99
2022-08-15T06:17:01.889Z,99.99
2022-08-15T06:18:00.050Z,99.99
2022-08-15T06:18:59.188Z,99.99
2022-08-15T06:19:59.759Z,99.99
2022-08-15T06:21:23.177Z,99.99
2022-08-15T06:22:25.702Z,99.99
2022-08-15T06:23:42.422Z,99.99
2022-08-15T06:24:32.341Z,99.99
2022-08-15T06:25:25.105Z,99.99
2022-08-15T06:26:25.580Z,99.99
2022-08-15T06:27:49.745Z,99.99
2022-08-15T06:29:04.953Z,99.99
2022-08-15T06:30:04.889Z,99.99
2022-08-15T06:31:06.209Z,99.99
2022-08-15T06:32:22.890Z,99.99
2022-08-15T06:33:07.027Z,99.99
2022-08-15T06:34:45.798Z,99.99
2022-08-15T06:35:15.747Z,99.99
2022-08-15T06:36:15.661Z,99.99
2022-08-15T06:37:18.773Z,99.99
2022-08-15T06:38:45.736Z,99.99
2022-08-15T06:39:19.863Z,99.99
2022-08-15T06:40:32.805Z,99.99
2022-08-15T06:41:19.624Z,99.99
2022-08-15T06:42:34.263Z,99.99
2022-08-15T06:43:36.646Z,99.99
2022-08-15T06:44:36.314Z,99.99
2022-08-15T06:45:36.358Z,99.99
2022-08-15T06:46:53.303Z,99.99
2022-08-15T06:47:41.280Z,99.99
2022-08-15T06:49:06.088Z,99.99
2022-08-15T06:49:41.795Z,99.99
2022-08-15T06:50:37.523Z,99.99
2022-08-15T06:51:51.536Z,99.99
2022-08-15T06:52:46.970Z,99.99
2022-08-15T06:53:49.254Z,99.99
2022-08-15T06:54:50.383Z,99.99
2022-08-15T06:55:48.534Z,99.99
2022-08-15T06:56:48.978Z,99.99
2022-08-15T06:57:49.915Z,99.99
2022-08-15T06:59:03.079Z,99.99
2022-08-15T07:00:03.093Z,99.99
2022-08-15T07:01:03.197Z,99.99
2022-08-15T07:02:22.987Z,99.99
2022-08-15T07:03:42.999Z,99.99
2022-08-15T07:04:43.223Z,99.99
2022-08-15T07:05:53.144Z,99.99
2022-08-15T07:06:46.480Z,99.99
2022-08-15T07:07:44.870Z,99.99
2022-08-15T07:08:45.782Z,99.99
2022-08-15T07:09:46.609Z,99.99
2022-08-15T07:10:54.743Z,99.99
2022-08-15T07:12:02.398Z,99.99
2022-08-15T07:12:57.700Z,99.99
2022-08-15T07:14:28.182Z,99.99
2022-08-15T07:15:28.309Z,99.99
2022-08-15T07:16:27.891Z,99.99
2022-08-15T07:17:37.956Z,99.99
2022-08-15T07:18:36.317Z,99.99
2022-08-15T07:19:29.623Z,99.99
2022-08-15T07:20:43.878Z,99.99
2022-08-15T07:21:59.105Z,99.99
2022-08-15T07:22:46.732Z,99.99
2022-08-15T07:23:50.814Z,99.99
2022-08-15T07:25:16.437Z,99.99
2022-08-15T07:26:15.845Z,99.99
2022-08-15T07:27:16.128Z,99.99
2022-08-15T07:28:24.347Z,99.99
2022-08-15T07:29:16.903Z,99.99
2022-08-15T07:30:18.435Z,99.99
2022-08-15T07:31:19.712Z,99.99
2022-08-15T07:32:41.986Z,99.99
2022-08-15T07:33:43.577Z,99.99
2022-08-15T07:34:40.301Z,99.99
2022-08-15T07:35:42.651Z,99.99
2022-08-15T07:36:44.674Z,99.99
2022-08-15T07:37:45.199Z,99.99
2022-08-15T07:38:43.196Z,99.99
2022-08-15T07:39:49.212Z,99.99
2022-08-15T07:40:56.011Z,99.99
2022-08-15T07:41:59.306Z,99.99
2022-08-15T07:43:06.463Z,99.99
2022-08-15T07:44:25.841Z,99.99
2022-08-15T07:45:06.656Z,99.99
2022-08-15T07:46:30.347Z,99.99
2022-08-15T07:47:34.501Z,99.99
2022-08-15T07:48:31.390Z,99.99
2022-08-15T07:49:34.920Z,99.99
2022-08-15T07:50:38.185Z,99.99
2022-08-15T07:51:36.235Z,99.99
2022-08-15T07:52:49.419Z,99.99
2022-08-15T07:53:39.664Z,99.99
2022-08-15T07:54:50.364Z,99.99
2022-08-15T07:56:46.121Z,99.99
2022-08-15T07:58:10.000Z,99.99
2022-08-15T07:59:10.767Z,99.99
2022-08-15T08:00:45.711Z,99.99
2022-08-15T08:03:19.384Z,99.99
2022-08-15T08:06:55.941Z,99.99
2022-08-15T08:07:57.211Z,99.99
2022-08-15T08:08:51.601Z,99.99
2022-08-15T08:09:51.925Z,99.99
2022-08-15T08:10:52.305Z,99.99
2022-08-15T08:11:54.996Z,99.99
2022-08-15T08:13:02.571Z,99.99
2022-08-15T08:13:59.080Z,99.99
2022-08-15T08:14:54.361Z,99.99
2022-08-15T08:15:59.669Z,99.99
2022-08-15T08:16:59.186Z,99.99
2022-08-15T08:18:48.032Z,99.99
2022-08-15T08:19:05.654Z,99.99
2022-08-15T08:20:10.462Z,99.99
2022-08-15T08:21:09.022Z,99.99
2022-08-15T08:22:09.360Z,99.99
2022-08-15T08:23:08.662Z,99.99
2022-08-15T08:24:13.603Z,99.99
2022-08-15T08:25:27.796Z,99.99
2022-08-15T08:26:36.663Z,99.99
2022-08-15T08:27:37.823Z,99.99
2022-08-15T08:28:51.030Z,99.99
2022-08-15T08:29:56.308Z,99.99
2022-08-15T08:30:51.975Z,99.99
2022-08-15T08:32:18.705Z,99.99
2022-08-15T08:32:59.490Z,99.99
2022-08-15T08:34:04.466Z,99.99
2022-08-15T08:35:00.863Z,99.99
2022-08-15T08:36:33.556Z,99.99
2022-08-15T08:37:03.930Z,99.99
2022-08-15T08:38:08.431Z,99.99
2022-08-15T08:40:06.959Z,99.99
2022-08-15T08:41:01.392Z,99.99
2022-08-15T08:42:13.739Z,99.99
2022-08-15T08:43:04.834Z,99.99
2022-08-15T08:44:01.684Z,99.99
2022-08-15T08:45:04.125Z,99.99
2022-08-15T08:46:03.464Z,99.99
2022-08-15T08:47:02.417Z,99.99
2022-08-15T08:48:05.240Z,99.99
2022-08-15T08:49:03.479Z,99.99
2022-08-15T08:50:44.678Z,99.99
2022-08-15T08:51:44.665Z,99.99
2022-08-15T08:52:44.952Z,99.99
2022-08-15T08:53:51.076Z,99.99
2022-08-15T08:55:06.386Z,99.99
2022-08-15T08:55:51.607Z,99.99
2022-08-15T08:56:47.653Z,99.99
2022-08-15T08:57:52.366Z,99.99
2022-08-15T08:58:49.991Z,99.99
2022-08-15T08:59:49.786Z,99.99
2022-08-15T09:00:52.038Z,99.99
2022-08-15T09:01:50.861Z,99.99
2022-08-15T09:02:57.425Z,99.99
2022-08-15T09:03:55.715Z,99.99
2022-08-15T09:04:55.810Z,99.99
2022-08-15T09:05:55.230Z,99.99
2022-08-15T09:06:53.933Z,99.99
2022-08-15T09:07:55.229Z,99.99
2022-08-15T09:08:55.178Z,99.99
2022-08-15T09:09:57.357Z,99.99
2022-08-15T09:11:04.292Z,99.99
2022-08-15T09:12:04.340Z,99.99
2022-08-15T09:13:06.854Z,99.99
2022-08-15T09:14:05.441Z,99.99
2022-08-15T09:15:15.088Z,99.99
2022-08-15T09:16:05.671Z,99.99
2022-08-15T09:17:33.032Z,99.99
2022-08-15T09:18:15.181Z,99.3
2022-08-15T09:19:17.892Z,99.21
2022-08-15T09:20:34.314Z,99.21
2022-08-15T09:21:37.900Z,99.6
2022-08-15T09:22:33.242Z,99.26
2022-08-15T09:23:39.432Z,98.97
2022-08-15T09:25:12.255Z,99.16
2022-08-15T09:25:41.401Z,99.74
2022-08-15T09:26:46.965Z,98.87
2022-08-15T09:28:00.287Z,99.26
2022-08-15T09:28:44.318Z,99.99
2022-08-15T09:30:02.367Z,99.99
2022-08-15T09:31:08.737Z,99.99
2022-08-15T09:32:36.776Z,99.16
2022-08-15T09:33:10.881Z,98
2022-08-15T09:34:12.434Z,98.58
2022-08-15T09:35:14.351Z,98.39
2022-08-15T09:36:24.706Z,98.87
2022-08-15T09:37:16.249Z,98.49
2022-08-15T09:38:31.136Z,99.16
2022-08-15T09:39:14.438Z,97.72
2022-08-15T09:41:20.362Z,97.91
2022-08-15T09:41:54.665Z,98
2022-08-15T09:43:23.230Z,97.91
2022-08-15T09:44:43.876Z,97.91
2022-08-15T09:45:49.379Z,98
2022-08-15T09:46:49.150Z,97.81
2022-08-15T09:47:58.644Z,98.29
2022-08-15T09:48:43.712Z,97.91
2022-08-15T09:49:44.721Z,98.58
2022-08-15T09:50:47.863Z,99.16
2022-08-15T09:51:44.092Z,98.97
2022-08-15T09:52:51.636Z,99.26
2022-08-15T09:54:11.245Z,99.07
2022-08-15T09:55:08.773Z,99.07
2022-08-15T09:56:11.548Z,98.87
2022-08-15T09:57:10.652Z,98.97
2022-08-15T09:58:19.247Z,98.87
2022-08-15T09:59:18.625Z,98.58
2022-08-15T10:00:12.886Z,97.91
2022-08-15T10:01:13.013Z,98.2
2022-08-15T10:02:42.666Z,99.26
2022-08-15T10:03:14.561Z,99.55
2022-08-15T10:04:28.613Z,99.64
2022-08-15T10:05:15.147Z,99.64
2022-08-15T10:06:39.437Z,99.99
2022-08-15T10:07:18.853Z,99.99
2022-08-15T10:08:28.321Z,99.99
2022-08-15T10:09:17.702Z,99.99
2022-08-15T10:10:20.405Z,99.99
2022-08-15T10:11:18.546Z,99.99
2022-08-15T10:12:19.007Z,99.99
2022-08-15T10:13:21.137Z,99.99
2022-08-15T10:14:20.672Z,99.99
2022-08-15T10:15:22.063Z,99.99
2022-08-15T10:16:21.341Z,99.99
2022-08-15T10:17:21.487Z,99.99
2022-08-15T10:18:23.943Z,99.99
2022-08-15T10:19:23.228Z,99.98
2022-08-15T10:20:33.652Z,99.5
2022-08-15T10:21:34.364Z,99.88
2022-08-15T10:22:50.771Z,99.99
2022-08-15T10:23:33.020Z,99.99
2022-08-15T10:25:04.818Z,99.99
2022-08-15T10:26:07.729Z,99.99
2022-08-15T10:27:07.055Z,99.99
2022-08-15T10:28:53.742Z,99.99
2022-08-15T10:29:19.787Z,99.45
2022-08-15T10:30:52.399Z,98.39
2022-08-15T10:31:18.497Z,98.58
2022-08-15T10:33:34.971Z,97.04
2022-08-15T10:34:18.315Z,97.42
2022-08-15T10:35:16.358Z,98.05
2022-08-15T10:36:39.848Z,99.02
2022-08-15T10:37:18.034Z,98.25
2022-08-15T10:38:37.589Z,96.22
2022-08-15T10:39:25.162Z,94.92
2022-08-15T10:40:28.986Z,95.21
2022-08-15T10:41:20.316Z,93.66
2022-08-15T10:42:28.766Z,93.66
2022-08-15T10:43:22.156Z,92.99
2022-08-15T10:44:41.036Z,93.47
2022-08-15T10:45:45.728Z,93.52
2022-08-15T10:46:50.654Z,92.65
2022-08-15T10:47:44.019Z,91.68
2022-08-15T10:48:55.797Z,91.88
2022-08-15T10:50:04.749Z,92.26
2022-08-15T10:50:52.623Z,92.07
2022-08-15T10:51:52.765Z,90.23
2022-08-15T10:52:57.148Z,89.79
2022-08-15T10:53:56.973Z,88.35
2022-08-15T10:54:56.593Z,89.99
2022-08-15T10:56:04.115Z,89.51
2022-08-15T10:57:51.046Z,89.51
2022-08-15T10:58:48.229Z,88.49
2022-08-15T10:59:57.144Z,86.46
2022-08-15T11:00:58.039Z,88.39
2022-08-15T11:01:57.948Z,86.46
2022-08-15T11:03:16.082Z,86.41
2022-08-15T11:05:04.705Z,83.03
2022-08-15T11:06:03.208Z,83.26
2022-08-15T11:07:03.842Z,82.2
2022-08-15T11:08:04.349Z,80.07
2022-08-15T11:09:04.739Z,79.33
2022-08-15T11:10:05.017Z,78.23
2022-08-15T11:11:05.584Z,78.46
2022-08-15T11:12:09.908Z,78.79
2022-08-15T11:13:10.009Z,75.15
2022-08-15T11:14:07.921Z,74.47
2022-08-15T11:15:22.355Z,76.35
2022-08-15T11:16:41.902Z,73.19
2022-08-15T11:17:10.411Z,71.09
2022-08-15T11:18:58.053Z,70.99
2022-08-15T11:20:23.901Z,70.8
2022-08-15T11:21:21.652Z,70.21
2022-08-15T11:22:22.268Z,69.64
2022-08-15T11:23:23.253Z,67.21
2022-08-15T11:24:23.464Z,68.18
2022-08-15T11:25:24.612Z,68.47
2022-08-15T11:26:33.139Z,67.11
2022-08-15T11:27:33.403Z,66.63
2022-08-15T11:28:55.343Z,68.47
2022-08-15T11:29:27.768Z,67.73
2022-08-15T11:30:38.229Z,67.14
2022-08-15T11:31:42.629Z,67.05
2022-08-15T11:32:40.913Z,68.21
2022-08-15T11:33:45.562Z,67.31
2022-08-15T11:34:50.495Z,68.66
2022-08-15T11:35:43.589Z,67.83
2022-08-15T11:36:41.947Z,68.31
2022-08-15T11:37:42.606Z,66.08
2022-08-15T11:38:51.325Z,65.01
2022-08-15T11:39:43.900Z,64.82
2022-08-15T11:40:46.947Z,64.75
2022-08-15T11:41:59.894Z,64.95
2022-08-15T11:43:10.680Z,66.53
2022-08-15T11:43:48.100Z,63.91
2022-08-15T11:44:49.769Z,61.51
2022-08-15T11:45:56.406Z,61.61
2022-08-15T11:46:51.055Z,58.79
2022-08-15T11:47:51.463Z,58.21
2022-08-15T11:48:56.592Z,58.69
2022-08-15T11:49:57.750Z,58.95
2022-08-15T11:50:58.932Z,60.54
2022-08-15T11:52:50.939Z,57.43
2022-08-15T11:53:15.737Z,57.98
2022-08-15T11:54:16.053Z,59.12
2022-08-15T11:55:17.012Z,61.94
2022-08-15T11:56:35.718Z,59.03
2022-08-15T11:57:52.166Z,61.58
2022-08-15T11:58:28.896Z,61.29
2022-08-15T11:59:25.451Z,61.77
2022-08-15T12:00:31.065Z,63.45
2022-08-15T12:01:26.139Z,63.07
2022-08-15T12:02:40.780Z,62.13
2022-08-15T12:07:51.515Z,57.56
2022-08-15T12:09:05.470Z,57.12
2022-08-15T12:12:13.368Z,57.51
2022-08-15T12:13:59.337Z,58.29
2022-08-15T12:15:00.814Z,58.22
2022-08-15T12:16:00.230Z,56.09
2022-08-15T12:17:08.084Z,57.93
2022-08-15T12:18:20.133Z,57.96
2022-08-15T12:19:12.674Z,56.89
2022-08-15T12:20:31.609Z,55.33
2022-08-15T12:21:13.813Z,54.19
2022-08-15T12:23:00.190Z,52.73
2022-08-15T12:23:34.012Z,53.73
2022-08-15T12:24:47.633Z,51.48
2022-08-15T12:25:54.770Z,52.09
2022-08-15T12:27:22.843Z,50.63
2022-08-15T12:28:45.474Z,52
2022-08-15T12:29:23.536Z,52.58
2022-08-15T12:30:24.824Z,53.24
2022-08-15T12:31:22.762Z,52.85
2022-08-15T12:32:41.637Z,53.73
2022-08-15T12:33:24.172Z,53.85
2022-08-15T12:34:38.250Z,53.85
2022-08-15T12:36:07.088Z,53.27
2022-08-15T12:37:49.447Z,50.04
2022-08-15T12:38:46.000Z,50.73
2022-08-15T12:39:49.651Z,47.8
2022-08-15T12:42:45.327Z,48.36
2022-08-15T12:43:23.521Z,47.92
2022-08-15T12:44:23.714Z,47.15
2022-08-15T12:45:25.059Z,48.68
2022-08-15T12:46:27.215Z,48.07
2022-08-15T12:47:44.419Z,48.85
2022-08-15T12:49:15.132Z,53.3
2022-08-15T12:50:23.574Z,50.51
2022-08-15T12:51:16.043Z,48.07
2022-08-15T12:52:18.499Z,47.98
2022-08-15T12:53:19.086Z,47.49
2022-08-15T12:54:37.296Z,47.1
2022-08-15T12:56:55.635Z,47.17
2022-08-15T12:57:51.643Z,46.88
2022-08-15T12:58:30.631Z,48.15
2022-08-15T12:59:31.640Z,45.81
2022-08-15T13:00:40.751Z,44.48
2022-08-15T13:02:03.804Z,45.52
2022-08-15T13:03:04.254Z,46.88
2022-08-15T13:04:41.322Z,46.71
2022-08-15T13:05:23.682Z,48.07
2022-08-15T13:07:06.618Z,46.13
2022-08-15T13:08:34.213Z,48.58
2022-08-15T13:09:33.715Z,51.51
2022-08-15T13:11:09.105Z,51.8
2022-08-15T13:12:16.806Z,49.71
2022-08-15T13:13:05.630Z,50.16
2022-08-15T13:14:06.814Z,49.02
2022-08-15T13:15:06.754Z,50.02
2022-08-15T13:16:40.279Z,49.05
2022-08-15T13:18:18.773Z,45.44
2022-08-15T13:19:16.157Z,44.64
2022-08-15T13:20:12.951Z,46.08
2022-08-15T13:21:13.721Z,48.29
2022-08-15T13:22:36.545Z,48.85
2022-08-15T13:23:31.479Z,49.05
2022-08-15T13:24:40.669Z,50.51
2022-08-15T13:25:35.538Z,49.71
2022-08-15T13:26:43.090Z,48.63
2022-08-15T13:27:38.884Z,49.32
2022-08-15T13:28:39.897Z,49.9
2022-08-15T13:29:39.656Z,50.09
2022-08-15T13:31:01.573Z,50.29
2022-08-15T13:31:38.594Z,49.34
2022-08-15T13:32:43.344Z,49.44
2022-08-15T13:33:43.070Z,50.41
2022-08-15T13:34:52.779Z,52.65
2022-08-15T13:36:05.121Z,53.26
2022-08-15T13:37:01.390Z,51.9
2022-08-15T13:38:23.183Z,51.51
2022-08-15T13:39:11.477Z,48.22
2022-08-15T13:40:06.718Z,49
2022-08-15T13:41:09.805Z,50.07
2022-08-15T13:42:43.182Z,48.9
2022-08-15T13:44:03.566Z,49.88
2022-08-15T13:45:18.064Z,50.16
2022-08-15T13:46:41.559Z,46.17
2022-08-15T13:47:58.439Z,46.64
2022-08-15T13:48:45.339Z,45.18
2022-08-15T13:49:43.010Z,45.94
2022-08-15T13:50:46.091Z,46.81
2022-08-15T13:52:45.900Z,49.15
2022-08-15T13:53:10.115Z,49.15
2022-08-15T13:54:51.404Z,49.83
2022-08-15T13:55:29.646Z,50.41
2022-08-15T13:56:41.318Z,52.36
2022-08-15T13:58:04.747Z,54.4
2022-08-15T13:58:40.692Z,52.55
2022-08-15T13:59:40.954Z,50.7
2022-08-15T14:01:09.756Z,49.76
2022-08-15T14:01:41.807Z,50.56
2022-08-15T14:02:45.666Z,50.65
2022-08-15T14:03:43.515Z,50.09
2022-08-15T14:04:58.175Z,48.44
2022-08-15T14:05:48.885Z,50.21
2022-08-15T14:06:54.768Z,52.07